Time;durP1;ratioP1;P1;durP2;ratioP2;P2;SDS_P1;SDS_P2;PMS_P1;PMS_P2;Temp;Humidity;BMP_temperature;BMP_pressure;BME280_temperature;BME280_humidity;BME280_pressure;Samples;Min_cycle;Max_cycle;Signal;HPM_P1;HPM_P2
2022/10/26 04:00:16;;;;;;;9.05;5.70;;;8.80;99.90;;;;;;6192002;22;20244;31
2022/10/26 04:02:45;;;;;;;6.35;4.00;;;8.80;99.90;;;;;;6209872;23;20195;-69
2022/10/26 04:05:12;;;;;;;8.13;5.70;;;8.80;99.90;;;;;;6212075;23;20179;-70
2022/10/26 04:07:39;;;;;;;7.15;5.55;;;8.80;99.90;;;;;;6212274;23;20266;-70
2022/10/26 04:10:06;;;;;;;11.23;5.60;;;8.80;99.90;;;;;;6212439;23;20188;-70
2022/10/26 04:12:36;;;;;;;5.63;4.70;;;8.80;99.90;;;;;;6210079;23;20207;-69
2022/10/26 04:15:05;;;;;;;10.80;4.68;;;8.80;99.90;;;;;;6211392;23;20251;-70
2022/10/26 04:17:33;;;;;;;7.00;6.45;;;8.80;99.90;;;;;;6211108;23;20606;-70
2022/10/26 04:20:00;;;;;;;7.78;4.35;;;8.70;99.90;;;;;;6212885;23;20187;-68
2022/10/26 04:22:26;;;;;;;10.35;7.35;;;8.70;99.90;;;;;;6211596;23;20244;-69
2022/10/26 04:24:53;;;;;;;21.05;5.25;;;8.70;99.90;;;;;;6211668;23;20188;-69
2022/10/26 04:27:20;;;;;;;6.70;6.13;;;8.70;99.90;;;;;;6211858;23;20199;-69
2022/10/26 04:29:47;;;;;;;14.00;4.28;;;8.70;99.90;;;;;;6211838;23;20188;-70
2022/10/26 04:32:13;;;;;;;3.78;3.47;;;8.70;99.90;;;;;;6211292;23;20214;-70
2022/10/26 04:34:41;;;;;;;6.13;3.92;;;8.70;99.90;;;;;;6212024;23;20185;-70
2022/10/26 04:37:09;;;;;;;6.25;3.92;;;8.60;99.90;;;;;;6211435;23;20207;-68
2022/10/26 04:39:36;;;;;;;5.72;5.05;;;8.60;99.90;;;;;;6211814;23;20191;-69
2022/10/26 04:42:02;;;;;;;7.03;4.93;;;8.60;99.90;;;;;;6211830;23;20216;-68
2022/10/26 04:44:29;;;;;;;10.32;4.20;;;8.60;99.90;;;;;;6210238;23;20186;-70
2022/10/26 04:46:56;;;;;;;7.95;5.20;;;8.60;99.90;;;;;;6212345;23;20191;-70
2022/10/26 04:49:22;;;;;;;7.57;4.63;;;8.50;99.90;;;;;;6211923;23;20184;-70
2022/10/26 04:51:50;;;;;;;6.63;4.95;;;8.50;99.90;;;;;;6211084;23;20200;-69
2022/10/26 04:54:17;;;;;;;11.73;4.25;;;8.50;99.90;;;;;;6211566;23;20686;-70
2022/10/26 04:56:44;;;;;;;6.72;4.65;;;8.50;99.90;;;;;;6210990;23;20203;-70
2022/10/26 04:59:10;;;;;;;9.80;4.35;;;8.50;99.90;;;;;;6211146;23;20198;-72
2022/10/26 05:01:37;;;;;;;9.63;6.25;;;8.50;99.90;;;;;;6210431;23;20499;-69
2022/10/26 05:04:04;;;;;;;4.97;4.40;;;8.50;99.90;;;;;;6210303;23;20549;-71
2022/10/26 05:06:30;;;;;;;8.13;4.95;;;8.40;99.90;;;;;;6210367;23;20188;-70
2022/10/26 05:08:58;;;;;;;15.35;5.97;;;8.40;99.90;;;;;;6211820;23;20203;-69
2022/10/26 05:11:25;;;;;;;9.73;4.43;;;8.50;99.90;;;;;;6210625;23;20208;-69
2022/10/26 05:13:52;;;;;;;13.55;5.07;;;8.40;99.90;;;;;;6210233;23;20238;-72
2022/10/26 05:16:18;;;;;;;4.68;4.15;;;8.50;99.90;;;;;;6211156;23;20188;-71
2022/10/26 05:18:48;;;;;;;7.32;4.43;;;8.40;99.90;;;;;;6211373;23;20187;-71
2022/10/26 05:21:18;;;;;;;7.22;4.15;;;8.40;99.90;;;;;;6211281;23;20592;-70
2022/10/26 05:23:47;;;;;;;6.60;4.32;;;8.30;99.90;;;;;;6210984;23;20194;-71
2022/10/26 05:26:15;;;;;;;8.65;4.60;;;8.30;99.90;;;;;;6210626;23;20195;-71
2022/10/26 05:28:42;;;;;;;6.00;3.70;;;8.30;99.90;;;;;;6212010;23;20202;-70
2022/10/26 05:31:09;;;;;;;5.80;3.97;;;8.40;99.90;;;;;;6210189;23;20201;-72
2022/10/26 05:33:35;;;;;;;6.72;4.20;;;8.40;99.90;;;;;;6210784;23;20206;-70
2022/10/26 05:36:02;;;;;;;10.38;4.90;;;8.40;99.90;;;;;;6211114;23;20191;-71
2022/10/26 05:38:29;;;;;;;9.10;6.22;;;8.40;99.90;;;;;;6211461;23;20183;-71
2022/10/26 05:40:55;;;;;;;6.20;5.50;;;8.40;99.90;;;;;;6210798;23;20334;-70
2022/10/26 05:43:24;;;;;;;9.73;4.90;;;8.40;99.90;;;;;;6209827;23;20188;-70
2022/10/26 05:45:51;;;;;;;9.20;5.25;;;8.30;99.90;;;;;;6208119;23;20620;-68
2022/10/26 05:48:18;;;;;;;7.50;5.35;;;8.30;99.90;;;;;;6210149;23;20200;-71
2022/10/26 05:50:45;;;;;;;13.25;6.85;;;8.30;99.90;;;;;;6211441;23;20199;-71
2022/10/26 05:53:12;;;;;;;7.45;4.95;;;8.30;99.90;;;;;;6210876;23;20195;-71
2022/10/26 05:55:39;;;;;;;11.90;5.28;;;8.20;99.90;;;;;;6211193;23;20203;-70
2022/10/26 05:58:11;;;;;;;6.18;5.00;;;8.30;99.90;;;;;;6211567;23;20180;-71
2022/10/26 06:00:50;;;;;;;9.13;3.83;;;8.30;99.90;;;;;;6209771;23;20235;-70
2022/10/26 06:03:28;;;;;;;4.70;4.13;;;8.30;99.90;;;;;;6210486;23;20183;-70
2022/10/26 06:05:57;;;;;;;7.18;6.47;;;8.30;99.90;;;;;;6211451;23;20176;-71
2022/10/26 06:08:25;;;;;;;5.78;4.75;;;8.30;99.90;;;;;;6212181;23;20295;-71
2022/10/26 06:10:53;;;;;;;4.82;4.43;;;8.30;99.90;;;;;;6210995;23;20199;-71
2022/10/26 06:13:21;;;;;;;11.55;7.47;;;8.30;99.90;;;;;;6210299;23;20279;-71
2022/10/26 06:15:59;;;;;;;7.82;5.55;;;8.30;99.90;;;;;;6210662;23;20191;-71
2022/10/26 06:18:34;;;;;;;10.80;4.88;;;8.30;99.90;;;;;;6211877;23;20164;-70
2022/10/26 06:21:15;;;;;;;7.22;5.25;;;8.30;99.90;;;;;;6210143;23;20211;-70
2022/10/26 06:23:50;;;;;;;4.97;4.43;;;8.30;99.90;;;;;;6211751;23;20562;-69
2022/10/26 06:26:28;;;;;;;7.13;5.60;;;8.30;99.90;;;;;;6212861;23;20170;-71
2022/10/26 06:29:03;;;;;;;4.68;4.38;;;8.40;99.90;;;;;;6213899;23;20188;-71
2022/10/26 06:31:31;;;;;;;11.68;6.13;;;8.40;99.90;;;;;;6212941;23;20212;-70
2022/10/26 06:33:59;;;;;;;5.43;5.00;;;8.40;99.90;;;;;;6212001;23;20669;-71
2022/10/26 06:36:28;;;;;;;14.85;5.30;;;8.40;99.90;;;;;;6213255;23;20213;-70
2022/10/26 06:38:58;;;;;;;5.95;3.85;;;8.40;99.90;;;;;;6214171;23;20184;-69
2022/10/26 06:41:26;;;;;;;8.45;5.07;;;8.40;99.90;;;;;;6213140;23;20295;-68
2022/10/26 06:43:53;;;;;;;7.75;4.75;;;8.40;99.90;;;;;;6212091;23;20609;-69
2022/10/26 06:46:29;;;;;;;4.60;4.18;;;8.40;99.90;;;;;;6212393;23;20184;-69
2022/10/26 06:49:06;;;;;;;4.55;3.85;;;8.40;99.90;;;;;;6213468;23;20211;-69
2022/10/26 06:51:39;;;;;;;7.95;6.10;;;8.40;99.90;;;;;;6213686;23;20207;-69
2022/10/26 06:54:15;;;;;;;6.47;5.05;;;8.40;99.90;;;;;;6212670;23;20281;-70
2022/10/26 06:56:45;;;;;;;10.90;6.47;;;8.50;99.90;;;;;;6212480;23;20511;-70
2022/10/26 06:59:17;;;;;;;6.28;5.15;;;8.50;99.90;;;;;;6212785;23;20183;-70
2022/10/26 07:01:44;;;;;;;5.70;5.15;;;8.50;99.90;;;;;;6212678;23;20589;-69
2022/10/26 07:04:12;;;;;;;4.45;3.95;;;8.50;99.90;;;;;;6212562;23;20501;-70
2022/10/26 07:06:38;;;;;;;6.13;5.65;;;8.50;99.90;;;;;;6211277;23;20614;-70
2022/10/26 07:09:05;;;;;;;9.75;5.18;;;8.50;99.90;;;;;;6213280;23;20204;-71
2022/10/26 07:11:32;;;;;;;5.10;3.53;;;8.60;99.90;;;;;;6210281;23;20204;-71
2022/10/26 07:13:58;;;;;;;6.45;5.30;;;8.60;99.90;;;;;;6212734;23;20210;-70
2022/10/26 07:16:26;;;;;;;10.35;4.88;;;8.60;99.90;;;;;;6212171;23;20184;-70
2022/10/26 07:18:53;;;;;;;6.05;5.53;;;8.70;99.90;;;;;;6212183;23;20631;-70
2022/10/26 07:21:21;;;;;;;6.03;4.28;;;8.70;99.90;;;;;;6211592;23;20214;-69
2022/10/26 07:23:48;;;;;;;13.45;4.15;;;8.80;99.90;;;;;;6211985;23;20603;-71
2022/10/26 07:26:14;;;;;;;5.03;4.65;;;8.90;99.90;;;;;;6210975;23;20180;-69
2022/10/26 07:28:41;;;;;;;8.30;4.47;;;9.10;99.90;;;;;;6213212;23;20201;-70
2022/10/26 07:31:08;;;;;;;7.95;5.05;;;9.20;99.90;;;;;;6212823;23;20207;-69
2022/10/26 07:33:34;;;;;;;11.48;5.82;;;9.20;99.90;;;;;;6212642;23;20181;-69
2022/10/26 07:36:01;;;;;;;9.13;5.93;;;9.30;99.90;;;;;;6212862;23;20193;-69
2022/10/26 07:38:29;;;;;;;5.47;4.25;;;9.30;99.90;;;;;;6213111;23;20230;-70
2022/10/26 07:40:56;;;;;;;5.22;4.22;;;9.30;99.90;;;;;;6211337;23;20695;-69
2022/10/26 07:43:22;;;;;;;11.75;4.05;;;9.40;99.90;;;;;;6211643;23;20674;-70
2022/10/26 07:45:50;;;;;;;6.88;4.07;;;9.40;99.90;;;;;;6212759;23;20674;-70
2022/10/26 07:48:17;;;;;;;6.15;4.47;;;9.50;99.90;;;;;;6212867;23;20206;-71
2022/10/26 07:50:43;;;;;;;5.35;4.75;;;10.00;99.90;;;;;;6211819;23;20216;-70
2022/10/26 07:53:10;;;;;;;8.98;4.30;;;10.40;99.90;;;;;;6210937;23;20179;-69
2022/10/26 07:55:38;;;;;;;5.78;4.82;;;10.60;99.90;;;;;;6211361;23;20197;-70
2022/10/26 07:58:05;;;;;;;7.10;6.35;;;10.70;99.90;;;;;;6211788;23;20496;-70
2022/10/26 08:00:36;;;;;;;7.47;4.47;;;10.70;99.90;;;;;;6212493;23;20283;-68
2022/10/26 08:03:03;;;;;;;5.03;3.85;;;10.60;99.90;;;;;;6211626;23;20197;-68
2022/10/26 08:05:29;;;;;;;8.05;4.47;;;10.50;99.90;;;;;;6212321;23;20185;-68
2022/10/26 08:07:56;;;;;;;2.78;2.58;;;10.40;99.90;;;;;;6211170;23;20194;-67
2022/10/26 08:10:23;;;;;;;3.22;3.03;;;10.40;99.90;;;;;;6211444;23;20655;-69
2022/10/26 08:12:52;;;;;;;3.78;3.53;;;10.40;99.90;;;;;;6209760;23;20215;-69
2022/10/26 08:15:19;;;;;;;8.63;5.05;;;10.40;99.90;;;;;;6211804;23;21001;-69
2022/10/26 08:17:46;;;;;;;9.98;5.28;;;10.50;99.90;;;;;;6211802;23;20620;-69
2022/10/26 08:20:12;;;;;;;7.97;3.85;;;10.50;99.90;;;;;;6209500;23;20504;-70
2022/10/26 08:22:39;;;;;;;5.07;3.67;;;10.50;99.90;;;;;;6209035;23;20217;-69
2022/10/26 08:25:06;;;;;;;4.53;4.20;;;10.60;99.90;;;;;;6212583;23;20289;-68
2022/10/26 08:27:33;;;;;;;10.05;3.90;;;10.60;99.90;;;;;;6211376;23;20264;-70
2022/10/26 08:30:01;;;;;;;4.38;4.07;;;10.70;99.90;;;;;;6212652;23;20196;-69
2022/10/26 08:32:28;;;;;;;6.90;4.53;;;10.70;99.90;;;;;;6212103;23;20681;-70
2022/10/26 08:34:54;;;;;;;6.50;4.20;;;10.80;99.90;;;;;;6211692;23;20510;-70
2022/10/26 08:37:21;;;;;;;4.50;3.72;;;10.80;99.90;;;;;;6212414;23;20806;-70
2022/10/26 08:39:48;;;;;;;5.68;3.47;;;10.90;99.90;;;;;;6212473;23;20176;-69
2022/10/26 08:42:21;;;;;;;3.95;3.05;;;10.90;99.90;;;;;;6210758;23;20651;-71
2022/10/26 08:44:50;;;;;;;4.32;3.92;;;10.90;99.90;;;;;;6210766;23;20166;-68
2022/10/26 08:47:22;;;;;;;8.90;5.25;;;11.00;99.90;;;;;;6210936;23;20269;-70
2022/10/26 08:49:54;;;;;;;10.65;5.00;;;11.10;99.90;;;;;;6210597;23;20189;-66
2022/10/26 08:52:27;;;;;;;5.38;3.15;;;11.20;99.90;;;;;;6211299;23;20264;-68
2022/10/26 08:54:57;;;;;;;6.28;4.22;;;11.20;99.90;;;;;;6211319;23;20169;-68
2022/10/26 08:57:27;;;;;;;7.18;3.72;;;11.30;99.90;;;;;;6210272;23;20186;-69
2022/10/26 08:59:58;;;;;;;5.03;4.05;;;11.40;99.90;;;;;;6212307;23;20183;-68
2022/10/26 09:02:27;;;;;;;4.05;3.00;;;11.40;99.90;;;;;;6211344;23;20213;-67
2022/10/26 09:04:54;;;;;;;4.03;3.70;;;11.50;99.90;;;;;;6211472;23;20190;-68
2022/10/26 09:07:44;;;;;;;9.35;4.10;;;11.60;99.90;;;;;;6211386;23;20179;-69
2022/10/26 09:10:26;;;;;;;3.58;3.28;;;11.60;99.90;;;;;;6210607;23;20185;-70
2022/10/26 09:12:59;;;;;;;3.75;3.55;;;11.70;99.90;;;;;;6210660;23;20365;-68
2022/10/26 09:15:40;;;;;;;4.78;4.38;;;11.80;99.90;;;;;;6209510;23;20167;-67
2022/10/26 09:18:18;;;;;;;5.28;4.60;;;11.80;99.90;;;;;;6211738;23;20164;-70
2022/10/26 09:21:05;;;;;;;4.15;3.97;;;12.00;99.90;;;;;;6211836;23;20203;-70
2022/10/26 09:23:50;;;;;;;4.93;3.95;;;12.00;99.90;;;;;;6211128;23;20171;-69
2022/10/26 09:26:28;;;;;;;3.83;3.60;;;12.20;99.90;;;;;;6209958;23;20262;-69
2022/10/26 09:28:58;;;;;;;4.15;3.83;;;12.30;99.90;;;;;;6212325;23;20611;-69
2022/10/26 09:31:25;;;;;;;5.00;4.47;;;12.40;99.90;;;;;;6210353;23;20212;-69
2022/10/26 09:33:55;;;;;;;3.65;3.38;;;12.50;99.90;;;;;;6211227;23;20190;-70
2022/10/26 09:36:22;;;;;;;2.80;2.60;;;12.50;99.90;;;;;;6210825;23;20183;-69
2022/10/26 09:38:56;;;;;;;4.90;3.22;;;12.60;99.90;;;;;;6210709;23;20854;-70
2022/10/26 09:41:27;;;;;;;5.33;3.47;;;12.60;99.90;;;;;;6210466;23;20201;-70
2022/10/26 09:44:01;;;;;;;4.75;4.30;;;12.70;99.90;;;;;;6208901;23;20434;-67
2022/10/26 09:46:31;;;;;;;4.60;4.10;;;12.80;99.90;;;;;;6211215;23;20167;-69
2022/10/26 09:49:05;;;;;;;3.70;3.10;;;12.90;99.90;;;;;;6211361;23;20434;-68
2022/10/26 09:51:32;;;;;;;4.17;3.73;;;13.00;99.90;;;;;;6212163;23;20204;-71
2022/10/26 09:54:00;;;;;;;4.50;3.87;;;13.00;99.90;;;;;;6211079;23;20477;-69
2022/10/26 09:56:29;;;;;;;3.47;3.27;;;13.10;99.90;;;;;;6210093;23;20426;-70
2022/10/26 09:59:02;;;;;;;3.57;3.30;;;13.10;99.90;;;;;;6211994;23;20734;-71
2022/10/26 10:01:31;;;;;;;3.87;3.60;;;13.30;99.90;;;;;;6212036;23;20477;-68
2022/10/26 10:04:19;;;;;;;3.27;3.00;;;13.30;99.90;;;;;;6210881;23;20911;-70
2022/10/26 10:06:48;;;;;;;3.40;3.20;;;13.40;99.90;;;;;;6211032;23;20400;-71
2022/10/26 10:09:16;;;;;;;2.83;2.73;;;13.50;99.90;;;;;;6211439;23;20453;-69
2022/10/26 10:11:45;;;;;;;4.23;3.83;;;13.60;99.90;;;;;;6210635;23;20442;-71
2022/10/26 10:14:17;;;;;;;10.23;2.83;;;13.60;99.90;;;;;;6206792;23;20425;-70
2022/10/26 10:16:51;;;;;;;2.33;2.23;;;13.60;99.90;;;;;;6209273;23;20415;-69
2022/10/26 10:19:24;;;;;;;1.97;1.87;;;13.80;99.90;;;;;;6209283;23;20407;-70
2022/10/26 10:21:54;;;;;;;5.63;3.17;;;13.80;99.90;;;;;;6209493;23;20540;-70
2022/10/26 10:24:27;;;;;;;6.00;2.70;;;13.80;99.90;;;;;;6211131;23;20407;-70
2022/10/26 10:26:59;;;;;;;2.77;2.57;;;13.90;99.90;;;;;;6211050;23;20500;-69
2022/10/26 10:29:27;;;;;;;2.50;2.40;;;14.00;99.90;;;;;;6213292;23;20497;-69
2022/10/26 10:31:58;;;;;;;3.67;2.83;;;14.10;99.90;;;;;;6212842;23;20443;-68
2022/10/26 10:34:26;;;;;;;2.90;2.77;;;14.10;99.90;;;;;;6210885;23;20409;-69
2022/10/26 10:36:54;;;;;;;2.97;2.80;;;14.30;99.90;;;;;;6212057;23;20428;-70
2022/10/26 10:39:37;;;;;;;2.60;2.37;;;14.30;99.90;;;;;;6210054;23;20426;-69
2022/10/26 10:42:06;;;;;;;14.33;2.57;;;14.30;99.90;;;;;;6208606;23;20466;-69
2022/10/26 10:44:34;;;;;;;3.00;2.90;;;14.40;99.90;;;;;;6209755;23;20424;-71
2022/10/26 10:47:02;;;;;;;2.63;2.43;;;14.40;99.90;;;;;;6210762;23;20431;-69
2022/10/26 10:49:31;;;;;;;2.07;2.07;;;14.50;99.90;;;;;;6210687;23;20444;-69
2022/10/26 10:51:58;;;;;;;2.20;2.10;;;14.60;99.90;;;;;;6210753;23;20525;-71
2022/10/26 10:54:29;;;;;;;3.43;2.00;;;14.70;99.90;;;;;;6209416;23;20427;-69
2022/10/26 10:57:03;;;;;;;2.70;2.50;;;14.80;99.90;;;;;;6208604;23;20415;-71
2022/10/26 10:59:47;;;;;;;1.90;1.80;;;14.80;99.90;;;;;;6209892;23;20403;-70
2022/10/26 11:02:43;;;;;;;2.20;2.20;;;14.80;99.90;;;;;;6208933;23;20800;-70
2022/10/26 11:05:22;;;;;;;1.50;1.50;;;14.80;99.90;;;;;;6203645;23;20731;-69
2022/10/26 11:07:54;;;;;;;1.90;1.90;;;14.90;99.90;;;;;;6209769;23;20721;-69
2022/10/26 11:10:25;;;;;;;2.20;2.20;;;14.90;99.90;;;;;;6211107;23;20437;-69
2022/10/26 11:12:57;;;;;;;1.70;1.70;;;15.00;99.90;;;;;;6214624;23;21064;-68
2022/10/26 11:15:28;;;;;;;2.00;1.90;;;15.10;99.90;;;;;;6213328;23;20409;-69
2022/10/26 11:18:03;;;;;;;1.43;1.43;;;15.10;99.90;;;;;;6212022;23;20431;-68
2022/10/26 11:20:34;;;;;;;2.23;2.13;;;15.20;99.90;;;;;;6215953;23;20494;-69
2022/10/26 11:23:08;;;;;;;1.30;1.20;;;15.20;99.90;;;;;;6214947;23;20422;-68
2022/10/26 11:25:41;;;;;;;6.73;2.60;;;15.30;99.90;;;;;;6211518;23;20889;-69
2022/10/26 11:28:16;;;;;;;1.40;1.40;;;15.40;99.90;;;;;;6211786;23;20412;-70
2022/10/26 11:30:47;;;;;;;4.00;1.17;;;15.40;99.90;;;;;;6211058;23;20958;-69
2022/10/26 11:33:20;;;;;;;3.40;1.30;;;15.50;99.90;;;;;;6210917;23;20435;-69
2022/10/26 11:35:55;;;;;;;10.10;1.80;;;15.60;99.90;;;;;;6212780;23;20408;-70
2022/10/26 11:38:31;;;;;;;1.30;1.30;;;15.60;99.90;;;;;;6212749;23;20408;-70
2022/10/26 11:41:05;;;;;;;1.00;1.00;;;15.60;99.90;;;;;;6212146;23;20793;-70
2022/10/26 11:43:38;;;;;;;0.80;0.80;;;15.70;99.90;;;;;;6210796;23;20417;-67
2022/10/26 11:46:10;;;;;;;5.67;1.33;;;15.70;99.90;;;;;;6209761;23;20405;-69
2022/10/26 11:48:43;;;;;;;1.17;1.17;;;15.80;99.90;;;;;;6211079;23;20409;-69
2022/10/26 11:51:18;;;;;;;0.97;0.97;;;15.90;99.90;;;;;;6212017;23;20516;-69
2022/10/26 11:53:47;;;;;;;1.47;1.47;;;15.90;99.90;;;;;;6210605;23;20413;-70
2022/10/26 11:56:21;;;;;;;1.00;1.00;;;15.90;99.90;;;;;;6210905;23;20427;-66
2022/10/26 11:58:48;;;;;;;1.53;1.43;;;16.10;99.90;;;;;;6212777;23;20424;-70
2022/10/26 12:01:16;;;;;;;5.57;1.30;;;16.20;99.90;;;;;;6211370;23;20477;-70
2022/10/26 12:03:47;;;;;;;0.63;0.63;;;16.30;99.90;;;;;;6211943;23;20429;-70
2022/10/26 12:06:20;;;;;;;3.63;1.07;;;16.20;99.90;;;;;;6211484;23;20733;-70
2022/10/26 12:08:53;;;;;;;0.80;0.80;;;16.30;99.90;;;;;;6212160;23;20724;-71
2022/10/26 12:11:34;;;;;;;1.00;1.00;;;16.30;99.90;;;;;;6211478;23;20452;-69
2022/10/26 12:14:07;;;;;;;0.50;0.50;;;16.30;99.90;;;;;;6211859;23;20855;-70
2022/10/26 12:16:46;;;;;;;0.50;0.50;;;16.30;99.90;;;;;;6212764;23;20742;-70
2022/10/26 12:19:21;;;;;;;1.90;1.20;;;16.40;99.90;;;;;;6212652;23;20423;-68
2022/10/26 12:21:50;;;;;;;0.73;0.73;;;16.40;99.90;;;;;;6211124;23;20518;-69
2022/10/26 12:24:35;;;;;;;0.70;0.70;;;16.40;99.90;;;;;;6211278;23;20431;-69
2022/10/26 12:27:04;;;;;;;0.50;0.50;;;16.40;99.90;;;;;;6211439;23;20411;-69
2022/10/26 12:29:35;;;;;;;1.20;1.20;;;16.50;99.90;;;;;;6212369;23;20738;-69
2022/10/26 12:32:03;;;;;;;0.93;0.93;;;16.60;99.90;;;;;;6211256;23;20442;-70
2022/10/26 12:35:00;;;;;;;0.53;0.53;;;16.70;99.90;;;;;;6211827;23;20491;-69
2022/10/26 12:37:35;;;;;;;0.47;0.47;;;16.70;99.90;;;;;;6211324;23;20453;-68
2022/10/26 12:40:39;;;;;;;0.83;0.83;;;16.70;99.90;;;;;;6211719;23;20441;-69
2022/10/26 12:43:36;;;;;;;0.90;0.90;;;16.70;99.90;;;;;;6210987;23;20452;-70
2022/10/26 12:46:40;;;;;;;1.97;0.67;;;16.70;99.90;;;;;;6211286;23;20410;-68
2022/10/26 12:49:46;;;;;;;1.20;1.10;;;16.70;99.90;;;;;;6211654;23;20935;-68
2022/10/26 12:52:22;;;;;;;0.97;0.97;;;16.80;99.90;;;;;;6210097;23;20525;-70
2022/10/26 12:55:09;;;;;;;1.20;1.20;;;16.80;99.90;;;;;;6210225;23;20444;-69
2022/10/26 12:57:44;;;;;;;0.63;0.63;;;16.70;99.90;;;;;;6210981;23;20407;-69
2022/10/26 13:00:14;;;;;;;1.70;0.60;;;16.70;99.90;;;;;;6210773;23;20403;-69
2022/10/26 13:02:54;;;;;;;1.00;1.00;;;16.70;99.90;;;;;;6209900;23;20745;-70
2022/10/26 13:06:07;;;;;;;1.47;1.47;;;16.70;99.90;;;;;;6212349;23;20403;-69
2022/10/26 13:08:40;;;;;;;1.03;1.03;;;16.90;99.90;;;;;;6211700;23;20718;-69
2022/10/26 13:11:17;;;;;;;0.60;0.60;;;16.90;99.90;;;;;;6208634;23;20906;-69
2022/10/26 13:13:45;;;;;;;0.50;0.50;;;16.90;99.90;;;;;;6210745;23;20501;-69
2022/10/26 13:16:16;;;;;;;6.30;1.00;;;16.90;99.90;;;;;;6210305;23;20422;-69
2022/10/26 13:18:44;;;;;;;2.50;0.60;;;16.80;99.90;;;;;;6210520;23;20406;-69
2022/10/26 13:21:13;;;;;;;3.20;0.90;;;16.70;99.90;;;;;;6210572;23;20527;-69
2022/10/26 13:23:44;;;;;;;0.80;0.80;;;16.70;99.90;;;;;;6211505;23;20487;-68
2022/10/26 13:26:14;;;;;;;1.40;1.30;;;16.70;99.90;;;;;;6210296;23;20714;-71
2022/10/26 13:28:47;;;;;;;0.60;0.60;;;16.60;99.90;;;;;;6211440;23;20426;-68
2022/10/26 13:31:53;;;;;;;0.90;0.90;;;16.60;99.90;;;;;;6211010;23;20450;-69
2022/10/26 13:34:22;;;;;;;2.60;1.57;;;16.60;99.90;;;;;;6210871;23;20407;-70
2022/10/26 13:36:53;;;;;;;0.90;0.80;;;16.50;99.90;;;;;;6211459;23;20432;-69
2022/10/26 13:39:23;;;;;;;0.77;0.70;;;16.50;99.90;;;;;;6211973;23;20988;-69
2022/10/26 13:41:53;;;;;;;1.50;1.40;;;16.60;99.90;;;;;;6212445;23;20441;-70
2022/10/26 13:44:26;;;;;;;0.70;0.70;;;16.50;99.90;;;;;;6210760;23;20410;-70
2022/10/26 13:46:58;;;;;;;0.60;0.60;;;16.50;99.90;;;;;;6211220;23;20406;-69
2022/10/26 13:49:29;;;;;;;1.23;0.93;;;16.50;99.90;;;;;;6211634;23;20721;-70
2022/10/26 13:52:02;;;;;;;0.97;0.97;;;16.50;99.90;;;;;;6209395;23;20982;-67
2022/10/26 13:54:34;;;;;;;0.90;0.90;;;16.50;99.90;;;;;;6209805;23;20410;-69
2022/10/26 13:57:17;;;;;;;0.70;0.70;;;16.60;99.90;;;;;;6207123;23;20449;-69
2022/10/26 13:59:45;;;;;;;0.70;0.70;;;16.60;99.90;;;;;;6210594;23;20407;-69
2022/10/26 14:02:22;;;;;;;3.90;1.00;;;16.70;99.90;;;;;;6210761;23;20468;-70
2022/10/26 14:04:52;;;;;;;0.80;0.80;;;16.60;99.90;;;;;;6210375;23;20410;-69
2022/10/26 14:07:23;;;;;;;1.00;1.00;;;16.70;99.90;;;;;;6211162;23;20448;-68
2022/10/26 14:09:55;;;;;;;1.00;1.00;;;16.70;99.90;;;;;;6210856;23;20421;-69
2022/10/26 14:12:25;;;;;;;0.73;0.73;;;16.70;99.90;;;;;;6209581;23;20969;-70
2022/10/26 14:14:53;;;;;;;0.80;0.80;;;16.70;99.90;;;;;;6209808;23;20425;-69
2022/10/26 14:17:22;;;;;;;1.30;1.30;;;16.70;99.90;;;;;;6211421;23;20901;-69
2022/10/26 14:19:49;;;;;;;0.67;0.67;;;16.70;99.90;;;;;;6210992;23;20430;-68
2022/10/26 14:22:20;;;;;;;1.80;1.03;;;16.70;99.90;;;;;;6210429;23;20446;-70
2022/10/26 14:24:52;;;;;;;1.67;1.07;;;16.60;99.90;;;;;;6211264;23;20405;-69
2022/10/26 14:27:20;;;;;;;0.90;0.90;;;16.60;99.90;;;;;;6210421;23;20414;-69
2022/10/26 14:29:50;;;;;;;1.03;1.00;;;16.50;99.90;;;;;;6211689;23;20913;-69
2022/10/26 14:32:21;;;;;;;1.87;1.20;;;16.50;99.90;;;;;;6210269;23;20947;-71
2022/10/26 14:34:48;;;;;;;2.60;1.10;;;16.40;99.90;;;;;;6210794;23;20497;-70
2022/10/26 14:37:24;;;;;;;1.43;1.07;;;16.40;99.90;;;;;;6209721;23;20912;-69
2022/10/26 14:39:51;;;;;;;1.13;1.13;;;16.20;99.90;;;;;;6210085;23;20410;-69
2022/10/26 14:42:24;;;;;;;0.90;0.90;;;16.20;99.90;;;;;;6211178;23;20441;-69
2022/10/26 14:44:52;;;;;;;1.10;1.03;;;16.20;99.90;;;;;;6211718;23;20405;-70
2022/10/26 14:47:24;;;;;;;2.80;1.40;;;16.10;99.90;;;;;;6213118;23;20442;-70
2022/10/26 14:49:51;;;;;;;2.00;2.00;;;16.10;99.90;;;;;;6212179;23;20496;-70
2022/10/26 14:52:22;;;;;;;1.00;1.00;;;16.10;99.90;;;;;;6222232;23;20471;-70
2022/10/26 14:54:58;;;;;;;2.27;1.20;;;16.10;99.90;;;;;;6211401;23;20412;-71
2022/10/26 14:57:34;;;;;;;4.13;0.90;;;16.10;99.90;;;;;;6211374;23;20418;-70
2022/10/26 15:00:05;;;;;;;0.80;0.80;;;16.00;99.90;;;;;;6211833;23;20406;-69
2022/10/26 15:02:34;;;;;;;1.90;1.23;;;16.00;99.90;;;;;;6212159;23;20455;-69
2022/10/26 15:05:03;;;;;;;0.90;0.90;;;16.00;99.90;;;;;;6211470;23;20422;-69
2022/10/26 15:07:37;;;;;;;1.27;1.27;;;15.90;99.90;;;;;;6212147;23;20422;-71
2022/10/26 15:10:05;;;;;;;1.43;1.10;;;15.90;99.90;;;;;;6213239;23;20524;-70
2022/10/26 15:12:33;;;;;;;1.33;0.80;;;15.90;99.90;;;;;;6211010;23;20452;-70
2022/10/26 15:15:16;;;;;;;2.73;1.00;;;15.90;99.90;;;;;;6211951;23;20893;-70
2022/10/26 15:17:50;;;;;;;2.97;0.80;;;15.90;99.90;;;;;;6212554;23;21181;-69
2022/10/26 15:20:19;;;;;;;1.23;1.23;;;15.90;99.90;;;;;;6212479;23;20404;-69
2022/10/26 15:22:51;;;;;;;1.23;1.23;;;15.80;99.90;;;;;;6209163;23;20720;-70
2022/10/26 15:25:21;;;;;;;1.07;1.07;;;15.70;99.90;;;;;;6212528;23;20401;-70
2022/10/26 15:27:49;;;;;;;2.50;1.13;;;15.60;99.90;;;;;;6211652;23;20420;-70
2022/10/26 15:30:23;;;;;;;0.80;0.80;;;15.60;99.90;;;;;;6210969;23;20427;-69
2022/10/26 15:32:51;;;;;;;1.60;1.60;;;15.50;99.90;;;;;;6210620;23;20436;-70
2022/10/26 15:35:29;;;;;;;1.07;0.90;;;15.50;99.90;;;;;;6211482;23;20898;-71
2022/10/26 15:37:57;;;;;;;1.67;1.67;;;15.40;99.90;;;;;;6214540;23;20415;-69
2022/10/26 15:40:27;;;;;;;7.40;1.20;;;15.40;99.90;;;;;;6218323;23;20423;-70
2022/10/26 15:42:55;;;;;;;0.93;0.93;;;15.20;99.90;;;;;;6211307;23;20504;-69
2022/10/26 15:45:25;;;;;;;1.43;1.40;;;15.20;99.90;;;;;;6211335;23;20425;-70
2022/10/26 15:47:54;;;;;;;0.90;0.90;;;15.10;99.90;;;;;;6210273;23;20433;-68
2022/10/26 15:50:22;;;;;;;1.27;1.27;;;15.00;99.90;;;;;;6211185;23;20408;-70
2022/10/26 15:52:49;;;;;;;1.47;1.47;;;14.90;99.90;;;;;;6215679;23;20432;-69
2022/10/26 15:55:16;;;;;;;2.73;1.60;;;14.90;99.90;;;;;;6214466;23;20424;-69
2022/10/26 15:57:43;;;;;;;1.67;1.57;;;14.80;99.90;;;;;;6209257;23;20424;-71
2022/10/26 16:00:15;;;;;;;2.50;1.87;;;14.70;99.90;;;;;;6210785;23;20903;-70
2022/10/26 16:02:45;;;;;;;1.70;1.40;;;14.60;99.90;;;;;;6181786;23;20437;-70
2022/10/26 16:05:13;;;;;;;1.53;1.43;;;14.60;99.90;;;;;;6180864;23;20428;-70
2022/10/26 16:07:42;;;;;;;2.70;1.80;;;14.50;99.90;;;;;;6181519;23;20489;-70
2022/10/26 16:10:14;;;;;;;1.50;1.50;;;14.50;99.90;;;;;;6181449;23;20467;-69
2022/10/26 16:12:41;;;;;;;1.67;1.57;;;14.40;99.90;;;;;;6180110;23;20490;-69
2022/10/26 16:15:15;;;;;;;2.87;1.53;;;14.40;99.90;;;;;;6180811;23;20788;-70
2022/10/26 16:17:43;;;;;;;2.07;2.00;;;14.30;99.90;;;;;;6182079;23;20428;-70
2022/10/26 16:20:14;;;;;;;1.30;1.30;;;14.30;99.90;;;;;;6183621;23;20428;-71
2022/10/26 16:22:45;;;;;;;2.60;1.90;;;14.20;99.90;;;;;;6182738;23;20501;-71
2022/10/26 16:25:13;;;;;;;1.87;1.80;;;14.20;99.90;;;;;;6181863;23;20800;-69
2022/10/26 16:27:39;;;;;;;2.00;2.00;;;14.10;99.90;;;;;;6179816;23;20453;-71
2022/10/26 16:30:07;;;;;;;1.37;1.37;;;14.10;99.90;;;;;;6182196;23;20519;-70
2022/10/26 16:32:35;;;;;;;2.13;2.03;;;14.10;99.90;;;;;;6181798;23;20453;-71
2022/10/26 16:35:03;;;;;;;2.90;1.80;;;14.10;99.90;;;;;;6181715;23;20421;-71
2022/10/26 16:37:30;;;;;;;2.00;1.90;;;14.00;99.90;;;;;;6181699;23;20424;-70
2022/10/26 16:39:57;;;;;;;2.03;2.00;;;14.00;99.90;;;;;;6181758;23;20551;-71
2022/10/26 16:42:24;;;;;;;1.87;1.80;;;13.90;99.90;;;;;;6179869;23;20963;-70
2022/10/26 16:44:51;;;;;;;2.40;2.10;;;13.80;99.90;;;;;;6181145;23;20426;-70
2022/10/26 16:47:18;;;;;;;2.17;2.07;;;13.80;99.90;;;;;;6181068;23;20425;-69
2022/10/26 16:49:45;;;;;;;2.20;1.70;;;13.80;99.90;;;;;;6180160;23;20446;-70
2022/10/26 16:52:13;;;;;;;2.30;2.20;;;13.80;99.90;;;;;;6180900;23;20462;-69
2022/10/26 16:54:40;;;;;;;1.80;1.70;;;13.70;99.90;;;;;;6179981;23;20431;-69
2022/10/26 16:57:06;;;;;;;2.50;2.30;;;13.70;99.90;;;;;;6179789;23;20424;-70
2022/10/26 16:59:33;;;;;;;2.20;2.10;;;13.70;99.90;;;;;;6180557;23;20572;-71
2022/10/26 17:02:00;;;;;;;1.70;1.70;;;13.70;99.90;;;;;;6203599;23;20447;-69
2022/10/26 17:04:26;;;;;;;3.60;1.73;;;13.60;99.90;;;;;;6210536;23;20428;-70
2022/10/26 17:06:53;;;;;;;2.43;2.23;;;13.60;99.90;;;;;;6210582;23;20423;-69